Data for 04/22/2018

Time Sea-Level Adjusted Pressure Absolute Pressure Temperature Relative Humidity Dew Point   
(mb) (inHg) (mb) (inHg) (C) (F) (%) (C) (F)
00:05 1021 30.15 851 25.13 7 44.7 48 -3.2 26.3
00:10 1022 30.18 851 25.13 7.3 45.1 46 -3.5 25.6
00:15 1022 30.18 851 25.13 7.4 45.3 46 -3.3 26
00:20 1022 30.18 851 25.13 7.3 45.1 46 -3.5 25.7
00:25 1022 30.18 851 25.13 7.3 45.1 46 -3.5 25.8
00:30 1022 30.18 851 25.13 7.3 45.1 46 -3.5 25.6
00:35 1022 30.18 851 25.13 7.2 44.9 47 -3.5 25.7
00:40 1022 30.18 851 25.13 7 44.6 47 -3.6 25.5
00:45 1022 30.18 851 25.13 6.9 44.5 47 -3.7 25.3
00:50 1022 30.18 851 25.13 6.9 44.4 46 -3.9 25
00:55 1022 30.18 851 25.13 6.8 44.3 47 -3.7 25.3
01:00 1022 30.18 851 25.13 6.6 43.9 47 -3.8 25.2
01:05 1022 30.18 851 25.13 6.5 43.7 47 -3.9 25
01:10 1022 30.18 851 25.13 6.5 43.7 47 -4.1 24.6
01:15 1022 30.18 851 25.13 6.4 43.5 47 -4 24.9
01:20 1022 30.18 851 25.13 6.3 43.4 48 -3.9 25
01:25 1022 30.18 851 25.13 6.3 43.4 49 -3.7 25.4
01:30 1022 30.18 851 25.13 6.3 43.3 49 -3.8 25.2
01:35 1022 30.18 851 25.13 6.3 43.4 47 -4 24.7
01:40 1022 30.18 851 25.13 6.3 43.3 48 -3.8 25.1
01:45 1022 30.18 851 25.13 6.2 43.1 49 -3.8 25.2
01:50 1022 30.18 851 25.13 5.9 42.7 50 -3.7 25.3
01:55 1022 30.18 851 25.13 5.8 42.4 50 -3.8 25.1
02:00 1022 30.18 851 25.13 5.7 42.2 50 -3.9 25
02:05 1022 30.18 851 25.13 5.6 42 51 -3.8 25.1
02:10 1022 30.18 851 25.13 5.5 42 51 -3.7 25.3
02:15 1022 30.18 851 25.13 5.4 41.7 52 -3.7 25.3
02:20 1022 30.18 851 25.13 5.3 41.5 52 -3.7 25.3
02:25 1022 30.18 851 25.13 5.2 41.4 52 -3.9 25
02:30 1022 30.18 851 25.13 5.2 41.3 52 -3.9 25
02:35 1022 30.18 851 25.13 5.1 41.2 51 -4.1 24.7
02:40 1022 30.18 851 25.13 5.2 41.4 51 -4 24.8
02:45 1022 30.18 851 25.13 5.2 41.3 51 -4.2 24.5
02:50 1022 30.18 851 25.13 5.1 41.2 49 -4.6 23.6
02:55 1022 30.18 851 25.13 5.3 41.5 49 -4.7 23.6
03:00 1022 30.18 851 25.13 5.4 41.8 49 -4.4 24
03:05 1022 30.18 851 25.13 5.4 41.7 49 -4.4 24.1
03:10 1022 30.18 851 25.13 5.3 41.5 50 -4.3 24.2
03:15 1022 30.18 851 25.13 5.1 41.2 51 -4.1 24.6
03:20 1022 30.18 851 25.13 4.8 40.7 53 -3.8 25.1
03:25 1022 30.18 852 25.16 4.5 40.2 54 -4 24.8
03:30 1022 30.18 852 25.16 4.4 39.8 55 -3.9 25
03:35 1022 30.18 852 25.16 3.8 38.9 57 -3.8 25.2
03:40 1022 30.18 852 25.16 3.5 38.3 59 -3.8 25.1
03:45 1022 30.18 852 25.16 3.3 38 59 -3.9 25
03:50 1022 30.18 852 25.16 3.3 38 58 -4.1 24.5
03:55 1022 30.18 852 25.16 3.4 38.1 59 -3.8 25.1
04:00 1022 30.18 852 25.16 3.2 37.7 59 -4 24.8
04:05 1023 30.21 852 25.16 3.3 38 57 -4.3 24.3
04:10 1023 30.21 852 25.16 3.6 38.4 57 -4.1 24.7
04:15 1023 30.21 852 25.16 3.4 38.1 58 -4.1 24.6
04:20 1023 30.21 852 25.16 3.3 38 59 -3.8 25.1
04:25 1023 30.21 852 25.16 3.2 37.7 59 -4 24.7
04:30 1023 30.21 852 25.16 3.2 37.8 59 -3.9 24.9
04:35 1023 30.21 852 25.16 3.1 37.6 60 -4 24.8
04:40 1023 30.21 852 25.16 3 37.3 60 -4 24.8
04:45 1023 30.21 852 25.16 2.9 37.3 61 -3.9 25
04:50 1023 30.21 852 25.16 2.6 36.7 63 -3.8 25.2
04:55 1023 30.21 852 25.16 2.4 36.2 64 -3.9 25.1
05:00 1023 30.21 852 25.16 2.3 36.1 63 -4 24.7
05:05 1023 30.21 852 25.16 2.5 36.4 62 -4.1 24.5
05:10 1023 30.21 852 25.16 2.7 36.8 60 -4.2 24.4
05:15 1023 30.21 852 25.16 2.8 37 60 -4.2 24.4
05:20 1023 30.21 852 25.16 2.8 37 60 -4.3 24.3
05:25 1023 30.21 852 25.16 2.8 37.1 59 -4.3 24.3
05:30 1022 30.18 852 25.16 2.8 37 60 -4.2 24.4
05:35 1023 30.21 852 25.16 2.6 36.7 61 -4.2 24.4
05:40 1023 30.21 852 25.16 2.5 36.4 61 -4.2 24.4
05:45 1022 30.18 852 25.16 2.4 36.2 62 -4.1 24.6
05:50 1022 30.18 852 25.16 1.9 35.4 65 -4.1 24.6
05:55 1022 30.18 852 25.16 1.6 34.9 65 -4.2 24.5
06:00 1022 30.18 852 25.16 1.5 34.8 65 -4.4 24.1
06:05 1022 30.18 852 25.16 1.8 35.3 63 -4.5 24
06:10 1022 30.18 852 25.16 2 35.6 62 -4.4 24
06:15 1022 30.18 852 25.16 2.1 35.7 62 -4.5 23.8
06:20 1022 30.18 851 25.13 2.1 35.7 62 -4.4 24
06:25 1022 30.18 851 25.13 1.9 35.4 63 -4.4 24
06:30 1022 30.18 851 25.13 1.7 35 64 -4.5 24
06:35 1022 30.18 852 25.16 1.6 34.9 64 -4.6 23.8
06:40 1022 30.18 851 25.13 1.6 35 63 -4.6 23.7
06:45 1022 30.18 851 25.13 1.7 35 63 -4.5 23.8
06:50 1022 30.18 851 25.13 1.8 35.3 63 -4.6 23.8
06:55 1022 30.18 851 25.13 2 35.5 62 -4.6 23.8
07:00 1022 30.18 851 25.13 2 35.6 62 -4.5 23.9
07:05 1022 30.18 851 25.13 2.2 36 60 -4.7 23.6
07:10 1022 30.18 851 25.13 2.6 36.7 59 -4.7 23.6
07:15 1022 30.18 851 25.13 3.1 37.5 57 -4.6 23.7
07:20 1022 30.18 851 25.13 3.3 37.9 56 -4.6 23.7
07:25 1022 30.18 851 25.13 3.4 38.2 55 -4.7 23.5
07:30 1022 30.18 851 25.13 3.7 38.7 54 -4.6 23.7
07:35 1022 30.18 851 25.13 3.9 38.9 53 -4.8 23.3
07:40 1022 30.18 851 25.13 4.2 39.5 52 -4.8 23.4
07:45 1022 30.18 851 25.13 4.7 40.4 50 -4.8 23.3
07:50 1022 30.18 852 25.16 4.9 40.9 50 -4.5 23.8
07:55 1022 30.18 852 25.16 4.9 40.9 50 -4.5 23.9
08:00 1022 30.18 852 25.16 5.2 41.4 48 -4.8 23.4
08:05 1022 30.18 852 25.16 5.9 42.6 46 -4.7 23.5
08:10 1022 30.18 852 25.16 6.9 44.4 44 -4.6 23.7
08:15 1022 30.18 852 25.16 7 44.7 43 -4.6 23.8
08:20 1023 30.21 852 25.16 7 44.6 43 -4.7 23.6
08:25 1022 30.18 852 25.16 7.3 45.2 41 -4.9 23.1
08:30 1022 30.18 852 25.16 7.7 45.8 41 -4.7 23.5
08:35 1022 30.18 852 25.16 7.7 45.8 41 -4.7 23.5
08:40 1022 30.18 852 25.16 7.4 45.4 41 -4.9 23.1
08:45 1022 30.18 852 25.16 7.5 45.5 41 -5 22.9
08:50 1022 30.18 852 25.16 8 46.3 39 -5.1 22.8
08:55 1022 30.18 852 25.16 7.9 46.2 40 -4.9 23.1
09:00 1023 30.21 852 25.16 7.7 45.9 40 -4.9 23.3
09:05 1023 30.21 852 25.16 7.5 45.6 43 -4.3 24.2
09:10 1023 30.21 852 25.16 7.6 45.7 40 -5 23
09:15 1022 30.18 852 25.16 7.9 46.3 40 -4.8 23.4
09:20 1022 30.18 852 25.16 8.1 46.5 39 -5.2 22.7
09:25 1022 30.18 852 25.16 8.4 47.2 37 -5.3 22.5
09:30 1022 30.18 852 25.16 8.8 47.8 37 -5.2 22.6
09:35 1022 30.18 852 25.16 8.3 46.9 37 -5.4 22.2
09:40 1022 30.18 852 25.16 8.3 47 36 -5.7 21.7
09:45 1022 30.18 852 25.16 8.8 47.8 34 -6.4 20.4
09:50 1022 30.18 851 25.13 9 48.1 34 -6 21.2
09:55 1022 30.18 851 25.13 9.3 48.7 35 -5.3 22.5
10:00 1022 30.18 851 25.13 9.3 48.8 33 -6.1 21
10:05 1022 30.18 851 25.13 9.8 49.6 32 -6.2 20.8
10:10 1022 30.18 851 25.13 9.1 48.5 34 -5.8 21.6
10:15 1022 30.18 851 25.13 9.4 48.9 33 -6.2 20.8
10:20 1022 30.18 851 25.13 9.6 49.3 32 -6.2 20.9
10:25 1022 30.18 851 25.13 10.1 50.2 32 -5.9 21.4
10:30 1022 30.18 851 25.13 9.8 49.6 33 -5.6 22
10:35 1022 30.18 851 25.13 9 48.1 33 -6.4 20.5
10:40 1022 30.18 851 25.13 9.9 49.8 32 -5.9 21.4
10:45 1022 30.18 851 25.13 10.6 51.1 31 -5.7 21.7
10:50 1022 30.18 851 25.13 10.3 50.5 32 -5.8 21.5
10:55 1022 30.18 851 25.13 10.9 51.6 31 -5.6 22
11:00 1022 30.18 851 25.13 11.2 52.1 30 -5.6 21.9
11:05 1022 30.18 851 25.13 11.2 52.2 31 -5 22.9
11:10 1022 30.18 851 25.13 11.2 52.1 31 -5.4 22.3
11:15 1022 30.18 851 25.13 10.7 51.3 32 -5.2 22.6
11:20 1022 30.18 851 25.13 10.6 51.2 32 -5.3 22.5
11:25 1022 30.18 851 25.13 10.8 51.5 31 -5.6 22
11:30 1021 30.15 851 25.13 11.7 53.1 30 -5.1 22.7
11:35 1021 30.15 851 25.13 12.1 53.7 30 -4.9 23.1
11:40 1021 30.15 851 25.13 12.2 53.9 29 -5.2 22.7
11:45 1021 30.15 851 25.13 12.7 54.9 29 -4.8 23.4
11:50 1021 30.15 851 25.13 11.4 52.5 32 -4.7 23.5
11:55 1021 30.15 850 25.1 10.9 51.5 32 -5.3 22.4
12:00 1021 30.15 850 25.1 11.8 53.2 30 -5.1 22.8
12:05 1021 30.15 850 25.1 12.3 54.1 30 -4.8 23.4
12:10 1021 30.15 850 25.1 12.7 54.8 29 -4.8 23.4
12:15 1021 30.15 850 25.1 13.3 56 28 -4.9 23.2
12:20 1021 30.15 850 25.1 13.9 57.1 28 -4.3 24.3
12:25 1021 30.15 850 25.1 13.1 55.7 29 -4.5 23.9
12:30 1021 30.15 850 25.1 13.5 56.3 28 -4.5 23.9
12:35 1021 30.15 850 25.1 13.7 56.6 28 -4.3 24.2
12:40 1021 30.15 850 25.1 12.5 54.4 29 -4.8 23.3
12:45 1021 30.15 850 25.1 13.5 56.2 27 -5.1 22.8
12:50 1021 30.15 850 25.1 13.5 56.4 28 -4.8 23.4
12:55 1021 30.15 850 25.1 14 57.2 27 -4.6 23.7
13:00 1020 30.12 850 25.1 13.2 55.8 28 -4.8 23.4
13:05 1020 30.12 850 25.1 13.7 56.7 28 -4.6 23.7
13:10 1020 30.12 850 25.1 13.8 56.9 27 -4.6 23.7
13:15 1020 30.12 850 25.1 14.7 58.4 26 -4.6 23.8
13:20 1020 30.12 849 25.07 14.8 58.6 27 -4.2 24.5
13:25 1020 30.12 849 25.07 13.5 56.3 28 -4.5 23.9
13:30 1020 30.12 849 25.07 14.7 58.5 24 -5.3 22.4
13:35 1020 30.12 849 25.07 15.5 59.9 24 -4.8 23.3
13:40 1020 30.12 849 25.07 15.7 60.2 26 -3.8 25.2
13:45 1020 30.12 849 25.07 14 57.1 27 -4.4 24
13:50 1020 30.12 849 25.07 14 57.2 27 -4.7 23.6
13:55 1020 30.12 849 25.07 15 59.1 25 -4.9 23.3
14:00 1020 30.12 849 25.07 15 58.9 26 -4.5 24
14:05 1020 30.12 849 25.07 15.4 59.7 24 -4.8 23.4
14:10 1020 30.12 849 25.07 15.9 60.5 24 -4.4 24.1
14:15 1020 30.12 849 25.07 16.2 61.2 24 -4.4 24.1
14:20 1020 30.12 849 25.07 16 60.8 25 -4.1 24.7
14:25 1020 30.12 849 25.07 15.7 60.3 24 -4.8 23.3
14:30 1020 30.12 849 25.07 16.2 61.1 24 -4.3 24.3
14:35 1019 30.09 849 25.07 16.3 61.3 23 -4.6 23.7
14:40 1019 30.09 849 25.07 16.2 61.1 24 -4.2 24.4
14:45 1019 30.09 849 25.07 15.6 60 25 -4.5 23.9
14:50 1019 30.09 849 25.07 16.1 60.9 23 -5 23.1
14:55 1019 30.09 849 25.07 16.3 61.4 23 -4.7 23.6
15:00 1019 30.09 849 25.07 16.9 62.5 23 -4.3 24.2
15:05 1019 30.09 848 25.04 16.7 62 23 -4.4 24.1
15:10 1019 30.09 848 25.04 17 62.5 22 -4.8 23.4
15:15 1019 30.09 848 25.04 17.2 63 22 -4.5 23.9
15:20 1019 30.09 848 25.04 17.3 63.2 21 -5 23
15:25 1019 30.09 848 25.04 17.4 63.3 23 -3.6 25.5
15:30 1019 30.09 848 25.04 16.3 61.4 23 -5 23
15:35 1019 30.09 848 25.04 16.4 61.5 23 -4.7 23.6
15:40 1019 30.09 848 25.04 16.4 61.4 24 -4.2 24.4
15:45 1019 30.09 848 25.04 17 62.5 21 -5.3 22.4
15:50 1019 30.09 848 25.04 17.5 63.5 20 -5.4 22.2
15:55 1019 30.09 848 25.04 18.4 65 20 -4.9 23.2
16:00 1019 30.09 848 25.04 18.1 64.6 21 -4.5 23.9
16:05 1019 30.09 848 25.04 17.6 63.6 21 -4.9 23.3
16:10 1019 30.09 848 25.04 17.2 62.9 22 -4.4 24
16:15 1019 30.09 848 25.04 16.3 61.3 23 -4.9 23.3
16:20 1019 30.09 848 25.04 16.7 62 23 -4.7 23.6
16:25 1019 30.09 848 25.04 16.6 61.9 23 -4.6 23.6
16:30 1018 30.06 848 25.04 16.9 62.3 23 -4.4 24.2
16:35 1018 30.06 848 25.04 17.2 63 22 -4.3 24.3
16:40 1018 30.06 848 25.04 17.2 62.9 23 -3.8 25.2
16:45 1018 30.06 848 25.04 16.9 62.4 23 -4.2 24.4
16:50 1018 30.06 847 25.01 17.2 63 22 -4.3 24.3
16:55 1018 30.06 847 25.01 17.4 63.3 22 -4.2 24.5
17:00 1018 30.06 847 25.01 16.9 62.4 23 -4.3 24.2
17:05 1018 30.06 847 25.01 16.2 61.1 24 -4.5 24
17:10 1018 30.06 847 25.01 16.3 61.3 23 -4.5 23.9
17:15 1018 30.06 847 25.01 16 60.8 24 -4.3 24.3
17:20 1018 30.06 847 25.01 15.7 60.3 25 -4.4 24
17:25 1018 30.06 847 25.01 15.6 60 24 -4.6 23.7
17:30 1018 30.06 847 25.01 15.5 59.8 25 -4.5 24
17:35 1018 30.06 847 25.01 15.8 60.5 24 -4.8 23.4
17:40 1018 30.06 847 25.01 16 60.8 24 -4.4 24.1
17:45 1018 30.06 847 25.01 16 60.8 24 -4.2 24.4
17:50 1018 30.06 847 25.01 15.8 60.4 24 -4.4 24.1
17:55 1018 30.06 848 25.04 15.7 60.3 25 -4.4 24.1
18:00 1018 30.06 848 25.04 15.4 59.6 26 -4.1 24.7
18:05 1018 30.06 848 25.04 15.1 59.3 26 -4.2 24.4
18:10 1019 30.09 848 25.04 15.2 59.3 26 -4.1 24.6
18:15 1019 30.09 848 25.04 15.1 59.3 29 -2.8 26.9
18:20 1019 30.09 848 25.04 14.7 58.4 30 -2.5 27.6
18:25 1019 30.09 848 25.04 14.2 57.6 32 -1.9 28.5
18:30 1019 30.09 848 25.04 13.8 56.9 33 -2.1 28.2
18:35 1019 30.09 848 25.04 13.4 56.2 34 -2.2 28
18:40 1019 30.09 848 25.04 13.3 55.9 35 -1.7 28.9
18:45 1019 30.09 848 25.04 13.1 55.6 37 -1.2 29.8
18:50 1019 30.09 848 25.04 12.8 55 39 -0.7 30.7
18:55 1019 30.09 848 25.04 13 55.4 37 -1.4 29.5
19:00 1019 30.09 849 25.07 13.1 55.6 37 -1 30.2
19:05 1019 30.09 849 25.07 13 55.4 40 -0.4 31.3
19:10 1020 30.12 849 25.07 12.6 54.6 41 -0.3 31.5
19:15 1019 30.09 849 25.07 12.2 54 44 0.4 32.8
19:20 1020 30.12 849 25.07 11.7 53.1 48 1.1 34.1
19:25 1020 30.12 849 25.07 11.2 52.1 55 2.5 36.5
19:30 1020 30.12 849 25.07 10.8 51.4 56 2.4 36.3
19:35 1020 30.12 849 25.07 10.5 50.9 58 2.6 36.7
19:40 1020 30.12 849 25.07 10.6 51 56 2.1 35.8
19:45 1020 30.12 849 25.07 10.6 51 57 2.5 36.6
19:50 1020 30.12 849 25.07 10.7 51.2 55 2 35.6
19:55 1020 30.12 849 25.07 10.5 50.8 58 2.5 36.5
20:00 1020 30.12 849 25.07 10.2 50.4 57 2.2 35.9
20:05 1020 30.12 849 25.07 10.1 50.3 55 1.4 34.6
20:10 1020 30.12 849 25.07 9.9 49.7 59 2.3 36.1
20:15 1020 30.12 849 25.07 9.6 49.2 62 2.8 37
20:20 1020 30.12 849 25.07 9.3 48.7 64 2.8 37.1
20:25 1020 30.12 849 25.07 9.2 48.5 65 3 37.4
20:30 1020 30.12 849 25.07 9.1 48.3 66 3 37.4
20:35 1020 30.12 849 25.07 8.7 47.7 71 3.9 38.9
20:40 1020 30.12 849 25.07 8.5 47.3 73 4 39.2
20:45 1020 30.12 849 25.07 8.4 47.1 74 4.1 39.4
20:50 1020 30.12 849 25.07 8.2 46.8 78 4.5 40.2
20:55 1020 30.12 849 25.07 7.9 46.3 74 3.6 38.4
21:00 1020 30.12 850 25.1 7.8 46.1 74 3.4 38.2
21:05 1021 30.15 850 25.1 7.6 45.6 76 3.7 38.6
21:10 1021 30.15 850 25.1 7.5 45.6 76 3.6 38.6
21:15 1021 30.15 850 25.1 7.6 45.7 77 3.8 38.9
21:20 1021 30.15 850 25.1 7.8 46 78 4.1 39.4
21:25 1021 30.15 850 25.1 7.7 45.8 80 4.5 40.1
21:30 1021 30.15 850 25.1 7.4 45.4 82 4.5 40.2
21:35 1021 30.15 850 25.1 7.2 44.9 85 4.8 40.6
21:40 1021 30.15 851 25.13 7 44.6 86 4.8 40.6
21:45 1021 30.15 851 25.13 6.9 44.4 86 4.8 40.6
21:50 1021 30.15 851 25.13 6.7 44 85 4.4 39.9
21:55 1021 30.15 851 25.13 5.9 42.7 87 3.9 39.1
22:00 1021 30.15 851 25.13 5.6 42.2 88 3.9 38.9
22:05 1021 30.15 851 25.13 5.5 41.8 89 3.8 38.9
22:10 1021 30.15 851 25.13 5.6 42.1 89 4 39.1
22:15 1021 30.15 851 25.13 5.4 41.8 89 3.8 38.9
22:20 1021 30.15 851 25.13 5.4 41.6 90 3.8 38.8
22:25 1021 30.15 851 25.13 5.4 41.7 89 3.7 38.7
22:30 1021 30.15 850 25.1 5.2 41.3 89 3.6 38.5
22:35 1021 30.15 850 25.1 5.3 41.5 90 3.7 38.7
22:40 1021 30.15 850 25.1 5.3 41.6 89 3.7 38.7
22:45 1021 30.15 850 25.1 5.3 41.6 89 3.7 38.6
22:50 1021 30.15 850 25.1 5.2 41.3 85 2.8 37.1
22:55 1021 30.15 850 25.1 4.4 40 87 2.5 36.5
23:00 1021 30.15 850 25.1 4.2 39.5 88 2.4 36.3
23:05 1021 30.15 850 25.1 4 39.2 89 2.3 36.1
23:10 1021 30.15 850 25.1 3.8 38.8 89 2.1 35.8
23:15 1021 30.15 850 25.1 3.7 38.7 89 2.1 35.8
23:20 1021 30.15 850 25.1 3.8 38.8 89 2.1 35.8
23:25 1021 30.15 850 25.1 3.7 38.6 89 2 35.6
23:30 1021 30.15 850 25.1 3.7 38.6 87 1.7 35.1
23:35 1021 30.15 850 25.1 3.7 38.6 87 1.7 35.1
23:40 1021 30.15 850 25.1 3.8 38.8 86 1.7 35
23:45 1021 30.15 850 25.1 3.9 39 86 1.7 35.1
23:50 1021 30.15 850 25.1 4.1 39.3 85 1.7 35.1
23:55 1021 30.15 850 25.1 4.1 39.3 83 1.5 34.6
24:00 1021 30.15 850 25.1 4.1 39.4 83 1.4 34.5